sensor_id;sensor_type;location;lat;lon;timestamp;P1;durP1;ratioP1;P2;durP2;ratioP2
1691;SDS011;843;52.054;8.552;2023-04-15T00:00:50;9.10;;;7.73;;
1691;SDS011;843;52.054;8.552;2023-04-15T00:03:17;9.57;;;7.80;;
1691;SDS011;843;52.054;8.552;2023-04-15T00:05:45;8.83;;;7.20;;
1691;SDS011;843;52.054;8.552;2023-04-15T00:08:12;9.50;;;7.70;;
1691;SDS011;843;52.054;8.552;2023-04-15T00:10:39;12.73;;;7.80;;
1691;SDS011;843;52.054;8.552;2023-04-15T00:13:08;10.47;;;8.90;;
1691;SDS011;843;52.054;8.552;2023-04-15T00:15:34;10.70;;;8.03;;
1691;SDS011;843;52.054;8.552;2023-04-15T00:18:01;10.40;;;8.30;;
1691;SDS011;843;52.054;8.552;2023-04-15T00:20:28;12.43;;;8.07;;
1691;SDS011;843;52.054;8.552;2023-04-15T00:22:56;9.20;;;7.20;;
1691;SDS011;843;52.054;8.552;2023-04-15T00:25:23;9.53;;;8.30;;
1691;SDS011;843;52.054;8.552;2023-04-15T00:27:49;11.90;;;8.10;;
1691;SDS011;843;52.054;8.552;2023-04-15T00:30:16;13.33;;;9.00;;
1691;SDS011;843;52.054;8.552;2023-04-15T00:32:43;11.87;;;8.73;;
1691;SDS011;843;52.054;8.552;2023-04-15T00:35:09;11.50;;;8.00;;
1691;SDS011;843;52.054;8.552;2023-04-15T00:37:36;10.70;;;8.57;;
1691;SDS011;843;52.054;8.552;2023-04-15T00:40:04;10.00;;;8.57;;
1691;SDS011;843;52.054;8.552;2023-04-15T00:42:33;10.57;;;9.40;;
1691;SDS011;843;52.054;8.552;2023-04-15T00:45:01;12.07;;;9.37;;
1691;SDS011;843;52.054;8.552;2023-04-15T00:47:27;13.53;;;9.60;;
1691;SDS011;843;52.054;8.552;2023-04-15T00:49:54;10.67;;;9.47;;
1691;SDS011;843;52.054;8.552;2023-04-15T00:52:20;12.13;;;8.77;;
1691;SDS011;843;52.054;8.552;2023-04-15T00:54:47;11.67;;;10.30;;
1691;SDS011;843;52.054;8.552;2023-04-15T00:57:16;12.60;;;10.00;;
1691;SDS011;843;52.054;8.552;2023-04-15T00:59:43;12.17;;;9.73;;
1691;SDS011;843;52.054;8.552;2023-04-15T01:02:09;13.17;;;9.27;;
1691;SDS011;843;52.054;8.552;2023-04-15T01:04:35;12.80;;;8.73;;
1691;SDS011;843;52.054;8.552;2023-04-15T01:07:02;10.30;;;8.97;;
1691;SDS011;843;52.054;8.552;2023-04-15T01:09:29;10.57;;;9.27;;
1691;SDS011;843;52.054;8.552;2023-04-15T01:11:55;9.90;;;8.73;;
1691;SDS011;843;52.054;8.552;2023-04-15T01:14:24;12.23;;;10.10;;
1691;SDS011;843;52.054;8.552;2023-04-15T01:16:51;14.50;;;10.07;;
1691;SDS011;843;52.054;8.552;2023-04-15T01:19:18;13.70;;;10.03;;
1691;SDS011;843;52.054;8.552;2023-04-15T01:21:45;19.63;;;11.33;;
1691;SDS011;843;52.054;8.552;2023-04-15T01:24:12;15.00;;;10.80;;
1691;SDS011;843;52.054;8.552;2023-04-15T01:26:40;14.90;;;12.70;;
1691;SDS011;843;52.054;8.552;2023-04-15T01:29:06;13.50;;;11.13;;
1691;SDS011;843;52.054;8.552;2023-04-15T01:31:33;13.93;;;11.27;;
1691;SDS011;843;52.054;8.552;2023-04-15T01:34:00;14.10;;;11.53;;
1691;SDS011;843;52.054;8.552;2023-04-15T01:36:26;18.17;;;13.47;;
1691;SDS011;843;52.054;8.552;2023-04-15T01:38:54;14.20;;;11.37;;
1691;SDS011;843;52.054;8.552;2023-04-15T01:41:21;13.67;;;11.67;;
1691;SDS011;843;52.054;8.552;2023-04-15T01:43:50;16.00;;;12.73;;
1691;SDS011;843;52.054;8.552;2023-04-15T01:46:17;14.87;;;10.87;;
1691;SDS011;843;52.054;8.552;2023-04-15T01:48:43;14.60;;;11.03;;
1691;SDS011;843;52.054;8.552;2023-04-15T01:51:10;14.83;;;12.30;;
1691;SDS011;843;52.054;8.552;2023-04-15T01:53:36;15.40;;;11.97;;
1691;SDS011;843;52.054;8.552;2023-04-15T01:56:03;14.40;;;11.00;;
1691;SDS011;843;52.054;8.552;2023-04-15T01:58:29;13.87;;;11.53;;
1691;SDS011;843;52.054;8.552;2023-04-15T02:00:57;13.00;;;10.90;;
1691;SDS011;843;52.054;8.552;2023-04-15T02:03:24;12.90;;;11.17;;
1691;SDS011;843;52.054;8.552;2023-04-15T02:05:51;15.77;;;11.97;;
1691;SDS011;843;52.054;8.552;2023-04-15T02:08:18;14.70;;;11.37;;
1691;SDS011;843;52.054;8.552;2023-04-15T02:10:44;14.97;;;11.77;;
1691;SDS011;843;52.054;8.552;2023-04-15T02:13:10;13.93;;;11.80;;
1691;SDS011;843;52.054;8.552;2023-04-15T02:15:37;13.93;;;11.10;;
1691;SDS011;843;52.054;8.552;2023-04-15T02:18:04;14.07;;;11.43;;
1691;SDS011;843;52.054;8.552;2023-04-15T02:20:31;12.10;;;10.53;;
1691;SDS011;843;52.054;8.552;2023-04-15T02:22:58;13.23;;;11.37;;
1691;SDS011;843;52.054;8.552;2023-04-15T02:25:25;13.83;;;11.93;;
1691;SDS011;843;52.054;8.552;2023-04-15T02:27:51;15.30;;;11.07;;
1691;SDS011;843;52.054;8.552;2023-04-15T02:30:18;13.80;;;11.03;;
1691;SDS011;843;52.054;8.552;2023-04-15T02:32:44;16.17;;;12.20;;
1691;SDS011;843;52.054;8.552;2023-04-15T02:35:12;12.83;;;10.27;;
1691;SDS011;843;52.054;8.552;2023-04-15T02:37:39;11.50;;;9.77;;
1691;SDS011;843;52.054;8.552;2023-04-15T02:40:08;15.07;;;10.83;;
1691;SDS011;843;52.054;8.552;2023-04-15T02:42:35;14.20;;;11.17;;
1691;SDS011;843;52.054;8.552;2023-04-15T02:45:02;12.67;;;10.40;;
1691;SDS011;843;52.054;8.552;2023-04-15T02:47:28;11.83;;;10.50;;
1691;SDS011;843;52.054;8.552;2023-04-15T02:49:55;13.30;;;9.80;;
1691;SDS011;843;52.054;8.552;2023-04-15T02:52:24;13.87;;;10.80;;
1691;SDS011;843;52.054;8.552;2023-04-15T02:54:50;11.40;;;10.03;;
1691;SDS011;843;52.054;8.552;2023-04-15T02:57:17;11.87;;;10.27;;
1691;SDS011;843;52.054;8.552;2023-04-15T02:59:44;13.50;;;10.27;;
1691;SDS011;843;52.054;8.552;2023-04-15T03:02:10;12.87;;;11.57;;
1691;SDS011;843;52.054;8.552;2023-04-15T03:04:37;13.57;;;11.90;;
1691;SDS011;843;52.054;8.552;2023-04-15T03:07:03;13.00;;;11.67;;
1691;SDS011;843;52.054;8.552;2023-04-15T03:09:31;14.67;;;11.97;;
1691;SDS011;843;52.054;8.552;2023-04-15T03:11:58;16.40;;;11.63;;
1691;SDS011;843;52.054;8.552;2023-04-15T03:14:24;13.80;;;11.70;;
1691;SDS011;843;52.054;8.552;2023-04-15T03:16:51;13.83;;;10.40;;
1691;SDS011;843;52.054;8.552;2023-04-15T03:19:17;13.20;;;10.90;;
1691;SDS011;843;52.054;8.552;2023-04-15T03:21:44;12.83;;;10.23;;
1691;SDS011;843;52.054;8.552;2023-04-15T03:24:10;12.47;;;10.87;;
1691;SDS011;843;52.054;8.552;2023-04-15T03:26:38;14.40;;;11.73;;
1691;SDS011;843;52.054;8.552;2023-04-15T03:29:04;15.50;;;11.83;;
1691;SDS011;843;52.054;8.552;2023-04-15T03:31:31;13.10;;;11.00;;
1691;SDS011;843;52.054;8.552;2023-04-15T03:33:57;14.07;;;12.10;;
1691;SDS011;843;52.054;8.552;2023-04-15T03:36:24;13.03;;;10.40;;
1691;SDS011;843;52.054;8.552;2023-04-15T03:38:51;13.27;;;10.90;;
1691;SDS011;843;52.054;8.552;2023-04-15T03:41:17;14.10;;;10.60;;
1691;SDS011;843;52.054;8.552;2023-04-15T03:43:45;12.90;;;11.50;;
1691;SDS011;843;52.054;8.552;2023-04-15T03:46:11;13.07;;;11.33;;
1691;SDS011;843;52.054;8.552;2023-04-15T03:48:38;14.13;;;9.63;;
1691;SDS011;843;52.054;8.552;2023-04-15T03:51:04;12.87;;;10.47;;
1691;SDS011;843;52.054;8.552;2023-04-15T03:53:31;12.80;;;11.30;;
1691;SDS011;843;52.054;8.552;2023-04-15T03:55:57;13.23;;;10.43;;
1691;SDS011;843;52.054;8.552;2023-04-15T03:58:23;13.20;;;11.27;;
1691;SDS011;843;52.054;8.552;2023-04-15T04:00:51;14.67;;;11.03;;
1691;SDS011;843;52.054;8.552;2023-04-15T04:03:18;13.57;;;9.93;;
1691;SDS011;843;52.054;8.552;2023-04-15T04:05:45;13.50;;;11.87;;
1691;SDS011;843;52.054;8.552;2023-04-15T04:08:11;13.20;;;11.03;;
1691;SDS011;843;52.054;8.552;2023-04-15T04:10:40;14.00;;;11.53;;
1691;SDS011;843;52.054;8.552;2023-04-15T04:13:06;17.70;;;12.10;;
1691;SDS011;843;52.054;8.552;2023-04-15T04:15:33;14.80;;;12.00;;
1691;SDS011;843;52.054;8.552;2023-04-15T04:18:01;13.93;;;11.50;;
1691;SDS011;843;52.054;8.552;2023-04-15T04:20:27;15.33;;;12.93;;
1691;SDS011;843;52.054;8.552;2023-04-15T04:22:55;15.77;;;12.77;;
1691;SDS011;843;52.054;8.552;2023-04-15T04:25:22;15.63;;;11.33;;
1691;SDS011;843;52.054;8.552;2023-04-15T04:27:48;15.87;;;12.80;;
1691;SDS011;843;52.054;8.552;2023-04-15T04:30:15;15.07;;;12.07;;
1691;SDS011;843;52.054;8.552;2023-04-15T04:32:41;15.97;;;11.83;;
1691;SDS011;843;52.054;8.552;2023-04-15T04:35:09;14.60;;;12.63;;
1691;SDS011;843;52.054;8.552;2023-04-15T04:37:36;13.40;;;12.00;;
1691;SDS011;843;52.054;8.552;2023-04-15T04:40:02;13.43;;;11.47;;
1691;SDS011;843;52.054;8.552;2023-04-15T04:42:29;16.13;;;13.00;;
1691;SDS011;843;52.054;8.552;2023-04-15T04:44:55;15.43;;;12.97;;
1691;SDS011;843;52.054;8.552;2023-04-15T04:47:22;15.53;;;13.93;;
1691;SDS011;843;52.054;8.552;2023-04-15T04:49:48;15.47;;;13.50;;
1691;SDS011;843;52.054;8.552;2023-04-15T04:52:16;15.27;;;12.60;;
1691;SDS011;843;52.054;8.552;2023-04-15T04:54:42;17.20;;;13.23;;
1691;SDS011;843;52.054;8.552;2023-04-15T04:57:09;14.33;;;11.77;;
1691;SDS011;843;52.054;8.552;2023-04-15T04:59:37;16.53;;;12.70;;
1691;SDS011;843;52.054;8.552;2023-04-15T05:02:04;14.80;;;11.77;;
1691;SDS011;843;52.054;8.552;2023-04-15T05:04:30;13.93;;;12.10;;
1691;SDS011;843;52.054;8.552;2023-04-15T05:06:57;13.73;;;12.20;;
1691;SDS011;843;52.054;8.552;2023-04-15T05:09:24;15.40;;;12.47;;
1691;SDS011;843;52.054;8.552;2023-04-15T05:11:51;14.80;;;12.20;;
1691;SDS011;843;52.054;8.552;2023-04-15T05:14:17;17.87;;;13.10;;
1691;SDS011;843;52.054;8.552;2023-04-15T05:16:44;15.70;;;13.33;;
1691;SDS011;843;52.054;8.552;2023-04-15T05:19:10;14.77;;;13.00;;
1691;SDS011;843;52.054;8.552;2023-04-15T05:21:36;17.90;;;14.43;;
1691;SDS011;843;52.054;8.552;2023-04-15T05:24:03;17.53;;;12.60;;
1691;SDS011;843;52.054;8.552;2023-04-15T05:26:31;14.47;;;12.77;;
1691;SDS011;843;52.054;8.552;2023-04-15T05:28:57;19.47;;;14.97;;
1691;SDS011;843;52.054;8.552;2023-04-15T05:31:24;15.53;;;13.17;;
1691;SDS011;843;52.054;8.552;2023-04-15T05:33:50;15.43;;;12.93;;
1691;SDS011;843;52.054;8.552;2023-04-15T05:36:17;16.23;;;12.57;;
1691;SDS011;843;52.054;8.552;2023-04-15T05:38:43;15.60;;;13.80;;
1691;SDS011;843;52.054;8.552;2023-04-15T05:41:10;14.57;;;12.90;;
1691;SDS011;843;52.054;8.552;2023-04-15T05:43:37;18.40;;;13.07;;
1691;SDS011;843;52.054;8.552;2023-04-15T05:46:04;16.20;;;13.37;;
1691;SDS011;843;52.054;8.552;2023-04-15T05:48:31;16.63;;;12.90;;
1691;SDS011;843;52.054;8.552;2023-04-15T05:50:57;18.77;;;13.60;;
1691;SDS011;843;52.054;8.552;2023-04-15T05:53:23;16.53;;;14.33;;
1691;SDS011;843;52.054;8.552;2023-04-15T05:55:50;16.73;;;13.60;;
1691;SDS011;843;52.054;8.552;2023-04-15T05:58:16;19.10;;;13.20;;
1691;SDS011;843;52.054;8.552;2023-04-15T06:00:44;16.67;;;14.10;;
1691;SDS011;843;52.054;8.552;2023-04-15T06:03:11;19.60;;;15.73;;
1691;SDS011;843;52.054;8.552;2023-04-15T06:05:37;18.50;;;14.47;;
1691;SDS011;843;52.054;8.552;2023-04-15T06:08:04;19.50;;;14.43;;
1691;SDS011;843;52.054;8.552;2023-04-15T06:10:31;19.13;;;14.70;;
1691;SDS011;843;52.054;8.552;2023-04-15T06:13:00;19.73;;;14.77;;
1691;SDS011;843;52.054;8.552;2023-04-15T06:15:26;19.70;;;14.53;;
1691;SDS011;843;52.054;8.552;2023-04-15T06:17:54;16.17;;;13.23;;
1691;SDS011;843;52.054;8.552;2023-04-15T06:20:21;19.00;;;14.40;;
1691;SDS011;843;52.054;8.552;2023-04-15T06:22:48;22.87;;;14.47;;
1691;SDS011;843;52.054;8.552;2023-04-15T06:25:14;17.60;;;13.00;;
1691;SDS011;843;52.054;8.552;2023-04-15T06:27:40;23.70;;;14.50;;
1691;SDS011;843;52.054;8.552;2023-04-15T06:30:07;18.87;;;14.43;;
1691;SDS011;843;52.054;8.552;2023-04-15T06:32:34;23.97;;;15.70;;
1691;SDS011;843;52.054;8.552;2023-04-15T06:35:02;21.23;;;16.77;;
1691;SDS011;843;52.054;8.552;2023-04-15T06:37:28;18.83;;;14.80;;
1691;SDS011;843;52.054;8.552;2023-04-15T06:39:55;19.17;;;15.23;;
1691;SDS011;843;52.054;8.552;2023-04-15T06:42:22;22.60;;;15.80;;
1691;SDS011;843;52.054;8.552;2023-04-15T06:44:48;23.60;;;18.17;;
1691;SDS011;843;52.054;8.552;2023-04-15T06:47:15;23.33;;;17.40;;
1691;SDS011;843;52.054;8.552;2023-04-15T06:49:41;26.17;;;18.30;;
1691;SDS011;843;52.054;8.552;2023-04-15T06:52:10;27.90;;;18.73;;
1691;SDS011;843;52.054;8.552;2023-04-15T06:54:37;25.30;;;19.50;;
1691;SDS011;843;52.054;8.552;2023-04-15T06:57:03;27.90;;;19.53;;
1691;SDS011;843;52.054;8.552;2023-04-15T06:59:29;33.37;;;22.07;;
1691;SDS011;843;52.054;8.552;2023-04-15T07:01:56;33.97;;;23.07;;
1691;SDS011;843;52.054;8.552;2023-04-15T07:04:23;34.37;;;23.57;;
1691;SDS011;843;52.054;8.552;2023-04-15T07:06:50;39.17;;;24.93;;
1691;SDS011;843;52.054;8.552;2023-04-15T07:09:19;36.77;;;24.30;;
1691;SDS011;843;52.054;8.552;2023-04-15T07:11:45;38.17;;;26.20;;
1691;SDS011;843;52.054;8.552;2023-04-15T07:14:12;39.20;;;26.57;;
1691;SDS011;843;52.054;8.552;2023-04-15T07:16:38;39.30;;;25.90;;
1691;SDS011;843;52.054;8.552;2023-04-15T07:19:05;44.23;;;26.23;;
1691;SDS011;843;52.054;8.552;2023-04-15T07:21:31;40.83;;;25.80;;
1691;SDS011;843;52.054;8.552;2023-04-15T07:23:57;42.53;;;26.40;;
1691;SDS011;843;52.054;8.552;2023-04-15T07:26:25;33.33;;;22.23;;
1691;SDS011;843;52.054;8.552;2023-04-15T07:28:52;31.80;;;21.97;;
1691;SDS011;843;52.054;8.552;2023-04-15T07:31:18;31.13;;;20.43;;
1691;SDS011;843;52.054;8.552;2023-04-15T07:33:44;31.10;;;20.40;;
1691;SDS011;843;52.054;8.552;2023-04-15T07:36:11;25.40;;;18.50;;
1691;SDS011;843;52.054;8.552;2023-04-15T07:38:38;25.50;;;18.60;;
1691;SDS011;843;52.054;8.552;2023-04-15T07:41:04;27.10;;;17.97;;
1691;SDS011;843;52.054;8.552;2023-04-15T07:43:32;24.80;;;16.17;;
1691;SDS011;843;52.054;8.552;2023-04-15T07:45:59;22.83;;;16.90;;
1691;SDS011;843;52.054;8.552;2023-04-15T07:48:25;20.70;;;15.00;;
1691;SDS011;843;52.054;8.552;2023-04-15T07:50:52;22.80;;;15.37;;
1691;SDS011;843;52.054;8.552;2023-04-15T07:53:18;22.90;;;15.10;;
1691;SDS011;843;52.054;8.552;2023-04-15T07:55:45;21.00;;;15.20;;
1691;SDS011;843;52.054;8.552;2023-04-15T07:58:12;19.87;;;14.77;;
1691;SDS011;843;52.054;8.552;2023-04-15T08:00:39;20.77;;;14.27;;
1691;SDS011;843;52.054;8.552;2023-04-15T08:03:06;19.87;;;13.43;;
1691;SDS011;843;52.054;8.552;2023-04-15T08:05:32;18.17;;;13.30;;
1691;SDS011;843;52.054;8.552;2023-04-15T08:07:59;19.67;;;14.83;;
1691;SDS011;843;52.054;8.552;2023-04-15T08:10:25;17.30;;;13.47;;
1691;SDS011;843;52.054;8.552;2023-04-15T08:12:52;16.07;;;12.30;;
1691;SDS011;843;52.054;8.552;2023-04-15T08:15:19;19.80;;;13.50;;
1691;SDS011;843;52.054;8.552;2023-04-15T08:17:47;19.30;;;12.43;;
1691;SDS011;843;52.054;8.552;2023-04-15T08:20:14;21.30;;;13.87;;
1691;SDS011;843;52.054;8.552;2023-04-15T08:22:41;19.40;;;14.00;;
1691;SDS011;843;52.054;8.552;2023-04-15T08:25:07;16.93;;;13.47;;
1691;SDS011;843;52.054;8.552;2023-04-15T08:27:34;17.47;;;13.10;;
1691;SDS011;843;52.054;8.552;2023-04-15T08:30:00;16.33;;;13.00;;
1691;SDS011;843;52.054;8.552;2023-04-15T08:32:27;17.07;;;13.20;;
1691;SDS011;843;52.054;8.552;2023-04-15T08:35:06;17.63;;;13.57;;
1691;SDS011;843;52.054;8.552;2023-04-15T08:37:33;19.20;;;14.47;;
1691;SDS011;843;52.054;8.552;2023-04-15T08:39:59;17.60;;;13.50;;
1691;SDS011;843;52.054;8.552;2023-04-15T08:42:27;18.07;;;14.37;;
1691;SDS011;843;52.054;8.552;2023-04-15T08:44:55;18.43;;;13.10;;
1691;SDS011;843;52.054;8.552;2023-04-15T08:47:25;17.80;;;13.73;;
1691;SDS011;843;52.054;8.552;2023-04-15T08:49:52;17.60;;;12.60;;
1691;SDS011;843;52.054;8.552;2023-04-15T08:52:22;16.13;;;12.53;;
1691;SDS011;843;52.054;8.552;2023-04-15T08:54:49;15.30;;;12.20;;
1691;SDS011;843;52.054;8.552;2023-04-15T08:57:16;15.20;;;12.67;;
1691;SDS011;843;52.054;8.552;2023-04-15T08:59:43;17.53;;;12.70;;
1691;SDS011;843;52.054;8.552;2023-04-15T09:02:10;14.53;;;11.80;;
1691;SDS011;843;52.054;8.552;2023-04-15T09:04:37;13.00;;;10.80;;
1691;SDS011;843;52.054;8.552;2023-04-15T09:07:03;14.50;;;11.33;;
1691;SDS011;843;52.054;8.552;2023-04-15T09:09:31;14.10;;;10.67;;
1691;SDS011;843;52.054;8.552;2023-04-15T09:11:59;12.30;;;10.30;;
1691;SDS011;843;52.054;8.552;2023-04-15T09:14:27;16.67;;;11.83;;
1691;SDS011;843;52.054;8.552;2023-04-15T09:16:56;13.67;;;10.80;;
1691;SDS011;843;52.054;8.552;2023-04-15T09:19:23;15.07;;;10.27;;
1691;SDS011;843;52.054;8.552;2023-04-15T09:21:50;14.63;;;9.50;;
1691;SDS011;843;52.054;8.552;2023-04-15T09:24:17;13.40;;;10.87;;
1691;SDS011;843;52.054;8.552;2023-04-15T09:26:45;10.93;;;9.73;;
1691;SDS011;843;52.054;8.552;2023-04-15T09:29:12;12.17;;;9.93;;
1691;SDS011;843;52.054;8.552;2023-04-15T09:31:39;12.00;;;10.30;;
1691;SDS011;843;52.054;8.552;2023-04-15T09:34:06;13.23;;;10.27;;
1691;SDS011;843;52.054;8.552;2023-04-15T09:36:37;11.27;;;8.97;;
1691;SDS011;843;52.054;8.552;2023-04-15T09:39:16;9.13;;;8.07;;
1691;SDS011;843;52.054;8.552;2023-04-15T09:41:43;9.00;;;7.73;;
1691;SDS011;843;52.054;8.552;2023-04-15T09:44:23;9.40;;;7.90;;
1691;SDS011;843;52.054;8.552;2023-04-15T09:46:50;8.90;;;7.23;;
1691;SDS011;843;52.054;8.552;2023-04-15T09:49:16;11.20;;;8.47;;
1691;SDS011;843;52.054;8.552;2023-04-15T09:51:43;10.10;;;6.80;;
1691;SDS011;843;52.054;8.552;2023-04-15T09:54:10;8.70;;;7.13;;
1691;SDS011;843;52.054;8.552;2023-04-15T09:56:37;8.00;;;6.50;;
1691;SDS011;843;52.054;8.552;2023-04-15T09:59:06;9.60;;;7.57;;
1691;SDS011;843;52.054;8.552;2023-04-15T10:01:34;9.97;;;7.83;;
1691;SDS011;843;52.054;8.552;2023-04-15T10:04:01;9.27;;;7.33;;
1691;SDS011;843;52.054;8.552;2023-04-15T10:06:28;9.60;;;7.77;;
1691;SDS011;843;52.054;8.552;2023-04-15T10:08:55;8.90;;;7.30;;
1691;SDS011;843;52.054;8.552;2023-04-15T10:11:22;7.87;;;6.67;;
1691;SDS011;843;52.054;8.552;2023-04-15T10:13:49;9.87;;;7.30;;
1691;SDS011;843;52.054;8.552;2023-04-15T10:16:18;9.90;;;7.60;;
1691;SDS011;843;52.054;8.552;2023-04-15T10:18:47;8.93;;;6.90;;
1691;SDS011;843;52.054;8.552;2023-04-15T10:21:15;10.70;;;6.90;;
1691;SDS011;843;52.054;8.552;2023-04-15T10:23:42;8.60;;;6.67;;
1691;SDS011;843;52.054;8.552;2023-04-15T10:26:09;8.70;;;7.17;;
1691;SDS011;843;52.054;8.552;2023-04-15T10:28:36;7.80;;;6.20;;
1691;SDS011;843;52.054;8.552;2023-04-15T10:31:02;8.27;;;6.90;;
1691;SDS011;843;52.054;8.552;2023-04-15T10:33:30;9.50;;;7.10;;
1691;SDS011;843;52.054;8.552;2023-04-15T10:35:58;8.60;;;7.43;;
1691;SDS011;843;52.054;8.552;2023-04-15T10:38:35;7.70;;;6.90;;
1691;SDS011;843;52.054;8.552;2023-04-15T10:41:11;7.83;;;5.70;;
1691;SDS011;843;52.054;8.552;2023-04-15T10:43:38;8.00;;;6.60;;
1691;SDS011;843;52.054;8.552;2023-04-15T10:46:04;7.23;;;6.40;;
1691;SDS011;843;52.054;8.552;2023-04-15T10:48:31;7.17;;;6.20;;
1691;SDS011;843;52.054;8.552;2023-04-15T10:51:00;6.60;;;5.90;;
1691;SDS011;843;52.054;8.552;2023-04-15T10:53:28;8.50;;;6.70;;
1691;SDS011;843;52.054;8.552;2023-04-15T10:55:55;8.03;;;6.17;;
1691;SDS011;843;52.054;8.552;2023-04-15T10:58:22;9.53;;;7.10;;
1691;SDS011;843;52.054;8.552;2023-04-15T11:00:49;7.03;;;5.83;;
1691;SDS011;843;52.054;8.552;2023-04-15T11:03:16;8.00;;;7.20;;
1691;SDS011;843;52.054;8.552;2023-04-15T11:05:49;7.90;;;6.47;;
1691;SDS011;843;52.054;8.552;2023-04-15T11:08:17;6.47;;;5.87;;
1691;SDS011;843;52.054;8.552;2023-04-15T11:10:53;7.37;;;6.60;;
1691;SDS011;843;52.054;8.552;2023-04-15T11:13:23;8.67;;;7.00;;
1691;SDS011;843;52.054;8.552;2023-04-15T11:15:54;8.67;;;7.10;;
1691;SDS011;843;52.054;8.552;2023-04-15T11:18:22;8.53;;;7.40;;
1691;SDS011;843;52.054;8.552;2023-04-15T11:20:50;8.77;;;7.50;;
1691;SDS011;843;52.054;8.552;2023-04-15T11:23:18;8.73;;;6.30;;
1691;SDS011;843;52.054;8.552;2023-04-15T11:25:45;8.67;;;7.77;;
1691;SDS011;843;52.054;8.552;2023-04-15T11:28:12;8.40;;;7.50;;
1691;SDS011;843;52.054;8.552;2023-04-15T11:30:39;8.73;;;7.83;;
1691;SDS011;843;52.054;8.552;2023-04-15T11:33:06;8.03;;;7.27;;
1691;SDS011;843;52.054;8.552;2023-04-15T11:35:33;8.53;;;6.67;;
1691;SDS011;843;52.054;8.552;2023-04-15T11:38:01;9.60;;;6.90;;
1691;SDS011;843;52.054;8.552;2023-04-15T11:40:29;8.00;;;7.20;;
1691;SDS011;843;52.054;8.552;2023-04-15T11:43:03;7.40;;;6.60;;
1691;SDS011;843;52.054;8.552;2023-04-15T11:45:30;8.03;;;7.23;;
1691;SDS011;843;52.054;8.552;2023-04-15T11:48:04;7.13;;;6.47;;
1691;SDS011;843;52.054;8.552;2023-04-15T11:50:30;7.57;;;6.77;;
1691;SDS011;843;52.054;8.552;2023-04-15T11:52:57;7.00;;;6.30;;
1691;SDS011;843;52.054;8.552;2023-04-15T11:55:24;8.27;;;7.47;;
1691;SDS011;843;52.054;8.552;2023-04-15T11:58:06;6.73;;;6.13;;
1691;SDS011;843;52.054;8.552;2023-04-15T12:00:33;7.20;;;6.50;;
1691;SDS011;843;52.054;8.552;2023-04-15T12:03:13;7.70;;;6.87;;
1691;SDS011;843;52.054;8.552;2023-04-15T12:08:24;7.63;;;6.77;;
1691;SDS011;843;52.054;8.552;2023-04-15T12:10:51;7.83;;;6.90;;
1691;SDS011;843;52.054;8.552;2023-04-15T12:13:25;7.00;;;6.40;;
1691;SDS011;843;52.054;8.552;2023-04-15T12:15:54;7.40;;;6.70;;
1691;SDS011;843;52.054;8.552;2023-04-15T12:18:20;6.50;;;5.90;;
1691;SDS011;843;52.054;8.552;2023-04-15T12:20:52;7.30;;;6.60;;
1691;SDS011;843;52.054;8.552;2023-04-15T12:23:19;7.77;;;6.70;;
1691;SDS011;843;52.054;8.552;2023-04-15T12:25:49;7.83;;;6.77;;
1691;SDS011;843;52.054;8.552;2023-04-15T12:28:16;7.47;;;6.20;;
1691;SDS011;843;52.054;8.552;2023-04-15T12:30:49;6.90;;;6.07;;
1691;SDS011;843;52.054;8.552;2023-04-15T12:33:16;7.67;;;7.00;;
1691;SDS011;843;52.054;8.552;2023-04-15T12:35:43;6.43;;;5.83;;
1691;SDS011;843;52.054;8.552;2023-04-15T12:38:09;6.37;;;5.77;;
1691;SDS011;843;52.054;8.552;2023-04-15T12:40:35;6.90;;;6.30;;
1691;SDS011;843;52.054;8.552;2023-04-15T12:43:02;7.87;;;6.43;;
1691;SDS011;843;52.054;8.552;2023-04-15T12:45:28;6.77;;;5.70;;
1691;SDS011;843;52.054;8.552;2023-04-15T12:47:56;6.60;;;5.97;;
1691;SDS011;843;52.054;8.552;2023-04-15T12:50:25;8.43;;;6.30;;
1691;SDS011;843;52.054;8.552;2023-04-15T12:52:52;6.50;;;5.90;;
1691;SDS011;843;52.054;8.552;2023-04-15T12:55:18;6.80;;;6.10;;
1691;SDS011;843;52.054;8.552;2023-04-15T12:57:44;5.83;;;5.33;;
1691;SDS011;843;52.054;8.552;2023-04-15T13:00:14;5.63;;;5.10;;
1691;SDS011;843;52.054;8.552;2023-04-15T13:02:40;4.90;;;4.40;;
1691;SDS011;843;52.054;8.552;2023-04-15T13:05:12;5.77;;;5.23;;
1691;SDS011;843;52.054;8.552;2023-04-15T13:07:39;7.53;;;5.30;;
1691;SDS011;843;52.054;8.552;2023-04-15T13:10:06;5.20;;;4.70;;
1691;SDS011;843;52.054;8.552;2023-04-15T13:12:33;5.93;;;5.37;;
1691;SDS011;843;52.054;8.552;2023-04-15T13:15:00;6.40;;;5.13;;
1691;SDS011;843;52.054;8.552;2023-04-15T13:17:27;6.33;;;5.67;;
1691;SDS011;843;52.054;8.552;2023-04-15T13:19:54;6.30;;;5.60;;
1691;SDS011;843;52.054;8.552;2023-04-15T13:22:22;8.93;;;6.40;;
1691;SDS011;843;52.054;8.552;2023-04-15T13:24:51;6.83;;;6.20;;
1691;SDS011;843;52.054;8.552;2023-04-15T13:27:17;7.23;;;6.60;;
1691;SDS011;843;52.054;8.552;2023-04-15T13:29:47;7.50;;;6.70;;
1691;SDS011;843;52.054;8.552;2023-04-15T13:32:13;7.20;;;6.40;;
1691;SDS011;843;52.054;8.552;2023-04-15T13:34:40;8.03;;;6.40;;
1691;SDS011;843;52.054;8.552;2023-04-15T13:37:06;8.43;;;7.50;;
1691;SDS011;843;52.054;8.552;2023-04-15T13:39:34;7.60;;;6.90;;
1691;SDS011;843;52.054;8.552;2023-04-15T13:42:01;9.00;;;7.60;;
1691;SDS011;843;52.054;8.552;2023-04-15T13:44:28;9.13;;;7.57;;
1691;SDS011;843;52.054;8.552;2023-04-15T13:46:54;11.40;;;8.47;;
1691;SDS011;843;52.054;8.552;2023-04-15T13:49:23;8.87;;;7.97;;
1691;SDS011;843;52.054;8.552;2023-04-15T13:51:50;10.20;;;9.20;;
1691;SDS011;843;52.054;8.552;2023-04-15T13:54:16;9.53;;;8.47;;
1691;SDS011;843;52.054;8.552;2023-04-15T13:56:44;10.70;;;9.10;;
1691;SDS011;843;52.054;8.552;2023-04-15T13:59:11;10.37;;;8.60;;
1691;SDS011;843;52.054;8.552;2023-04-15T14:01:37;15.63;;;9.90;;
1691;SDS011;843;52.054;8.552;2023-04-15T14:04:05;10.80;;;9.70;;
1691;SDS011;843;52.054;8.552;2023-04-15T14:06:31;11.27;;;10.07;;
1691;SDS011;843;52.054;8.552;2023-04-15T14:08:58;14.00;;;9.70;;
1691;SDS011;843;52.054;8.552;2023-04-15T14:11:24;12.23;;;10.87;;
1691;SDS011;843;52.054;8.552;2023-04-15T14:13:52;12.57;;;11.27;;
1691;SDS011;843;52.054;8.552;2023-04-15T14:16:20;12.70;;;10.93;;
1691;SDS011;843;52.054;8.552;2023-04-15T14:18:47;12.47;;;10.97;;
1691;SDS011;843;52.054;8.552;2023-04-15T14:21:13;12.30;;;11.00;;
1691;SDS011;843;52.054;8.552;2023-04-15T14:23:40;14.77;;;11.67;;
1691;SDS011;843;52.054;8.552;2023-04-15T14:26:06;13.80;;;12.27;;
1691;SDS011;843;52.054;8.552;2023-04-15T14:28:33;15.77;;;13.13;;
1691;SDS011;843;52.054;8.552;2023-04-15T14:31:03;14.20;;;12.47;;
1691;SDS011;843;52.054;8.552;2023-04-15T14:33:30;15.17;;;13.67;;
1691;SDS011;843;52.054;8.552;2023-04-15T14:35:57;14.60;;;12.20;;
1691;SDS011;843;52.054;8.552;2023-04-15T14:38:23;14.30;;;11.73;;
1691;SDS011;843;52.054;8.552;2023-04-15T14:40:50;14.43;;;12.40;;
1691;SDS011;843;52.054;8.552;2023-04-15T14:43:16;15.47;;;13.60;;
1691;SDS011;843;52.054;8.552;2023-04-15T14:45:43;14.00;;;12.60;;
1691;SDS011;843;52.054;8.552;2023-04-15T14:48:11;13.20;;;11.73;;
1691;SDS011;843;52.054;8.552;2023-04-15T14:50:37;16.40;;;12.43;;
1691;SDS011;843;52.054;8.552;2023-04-15T14:53:04;15.70;;;13.30;;
1691;SDS011;843;52.054;8.552;2023-04-15T14:55:30;15.43;;;13.40;;
1691;SDS011;843;52.054;8.552;2023-04-15T14:57:57;21.23;;;14.03;;
1691;SDS011;843;52.054;8.552;2023-04-15T15:00:23;13.90;;;12.43;;
1691;SDS011;843;52.054;8.552;2023-04-15T15:02:52;15.97;;;12.70;;
1691;SDS011;843;52.054;8.552;2023-04-15T15:05:20;16.73;;;12.47;;
1691;SDS011;843;52.054;8.552;2023-04-15T15:07:47;14.90;;;13.37;;
1691;SDS011;843;52.054;8.552;2023-04-15T15:10:13;14.73;;;11.70;;
1691;SDS011;843;52.054;8.552;2023-04-15T15:12:40;14.20;;;11.97;;